createdAt,value
2023-02-25T00:01:44.448Z,47.50
2023-02-25T00:04:15.575Z,42.10
2023-02-25T00:06:42.558Z,37.15
2023-02-25T00:09:11.421Z,45.60
2023-02-25T00:11:38.603Z,47.72
2023-02-25T00:14:05.681Z,47.92
2023-02-25T00:16:32.878Z,34.30
2023-02-25T00:18:59.983Z,43.45
2023-02-25T00:21:29.671Z,38.45
2023-02-25T00:24:00.137Z,51.40
2023-02-25T00:26:31.572Z,46.95
2023-02-25T00:28:58.503Z,54.30
2023-02-25T00:31:26.066Z,48.20
2023-02-25T00:33:53.581Z,48.28
2023-02-25T00:36:24.071Z,38.55
2023-02-25T00:38:53.540Z,36.33
2023-02-25T00:41:23.675Z,43.20
2023-02-25T00:43:56.424Z,44.53
2023-02-25T00:46:24.965Z,51.78
2023-02-25T00:48:52.359Z,48.97
2023-02-25T00:51:25.351Z,50.08
2023-02-25T00:53:53.808Z,49.55
2023-02-25T00:56:21.067Z,54.78
2023-02-25T00:58:50.299Z,54.67
2023-02-25T01:01:24.440Z,58.17
2023-02-25T01:03:53.971Z,50.72
2023-02-25T01:06:21.693Z,56.78
2023-02-25T01:08:49.591Z,50.03
2023-02-25T01:11:27.808Z,53.72
2023-02-25T01:13:57.152Z,52.58
2023-02-25T01:16:27.577Z,54.78
2023-02-25T01:19:00.613Z,57.65
2023-02-25T01:21:34.302Z,58.17
2023-02-25T01:24:06.740Z,51.58
2023-02-25T01:26:38.260Z,57.75
2023-02-25T01:29:10.471Z,60.38
2023-02-25T01:31:38.373Z,49.22
2023-02-25T01:34:08.043Z,62.63
2023-02-25T01:36:35.756Z,42.65
2023-02-25T01:39:04.404Z,45.72
2023-02-25T01:41:33.395Z,48.55
2023-02-25T01:44:17.626Z,43.22
2023-02-25T01:46:47.191Z,46.50
2023-02-25T01:49:44.789Z,40.35
2023-02-25T01:52:16.153Z,46.10
2023-02-25T01:54:45.307Z,41.03
2023-02-25T01:57:15.627Z,51.17
2023-02-25T01:59:44.045Z,47.05
2023-02-25T02:02:19.206Z,46.67
2023-02-25T02:04:50.921Z,51.22
2023-02-25T02:07:22.986Z,42.10
2023-02-25T02:10:00.054Z,54.63
2023-02-25T02:12:34.290Z,60.22
2023-02-25T02:15:04.499Z,64.40
2023-02-25T02:17:40.336Z,62.72
2023-02-25T02:20:13.333Z,61.05
2023-02-25T02:22:42.962Z,53.00
2023-02-25T02:25:28.124Z,59.13
2023-02-25T02:28:19.840Z,68.00
2023-02-25T02:31:24.959Z,54.47
2023-02-25T02:34:19.550Z,60.75
2023-02-25T02:37:04.473Z,57.42
2023-02-25T02:40:26.039Z,50.25
2023-02-25T02:43:20.021Z,48.97
2023-02-25T02:46:28.905Z,44.55
2023-02-25T02:49:05.895Z,51.17
2023-02-25T02:51:44.758Z,60.67
2023-02-25T02:54:14.995Z,48.92
2023-02-25T02:56:45.047Z,52.10
2023-02-25T02:59:25.444Z,64.82
2023-02-25T03:02:06.693Z,45.67
2023-02-25T03:04:38.413Z,59.15
2023-02-25T03:07:10.651Z,42.25
2023-02-25T03:09:46.365Z,52.88
2023-02-25T03:12:13.436Z,56.13
2023-02-25T03:14:40.616Z,39.70
2023-02-25T03:17:14.040Z,65.97
2023-02-25T03:19:45.176Z,61.13
2023-02-25T03:22:19.656Z,56.22
2023-02-25T03:24:53.753Z,50.83
2023-02-25T03:27:34.465Z,66.65
2023-02-25T03:30:13.135Z,56.55
2023-02-25T03:32:45.208Z,52.35
2023-02-25T03:35:14.758Z,36.90
2023-02-25T03:37:46.809Z,53.03
2023-02-25T03:40:15.818Z,54.72
2023-02-25T03:42:48.809Z,48.67
2023-02-25T03:45:17.355Z,57.50
2023-02-25T03:47:44.560Z,60.78
2023-02-25T03:50:19.251Z,58.95
2023-02-25T03:52:48.584Z,52.00
2023-02-25T03:55:35.470Z,51.28
2023-02-25T03:58:02.894Z,56.80
2023-02-25T04:00:33.047Z,50.75
2023-02-25T04:03:00.641Z,57.75
2023-02-25T04:05:28.207Z,49.42
2023-02-25T04:07:57.614Z,49.63
2023-02-25T04:10:26.467Z,50.67
2023-02-25T04:12:53.384Z,53.38
2023-02-25T04:15:21.075Z,47.15
2023-02-25T04:17:48.055Z,48.63
2023-02-25T04:20:17.316Z,53.20
2023-02-25T04:22:44.433Z,56.15
2023-02-25T04:25:11.524Z,53.58
2023-02-25T04:27:38.391Z,57.70
2023-02-25T04:30:05.963Z,50.15
2023-02-25T04:32:32.903Z,41.17
2023-02-25T04:35:03.235Z,46.03
2023-02-25T04:37:31.078Z,44.85
2023-02-25T04:39:58.528Z,46.63
2023-02-25T04:42:25.526Z,42.10
2023-02-25T04:44:52.381Z,39.67
2023-02-25T04:47:19.340Z,48.63
2023-02-25T04:49:46.331Z,43.42
2023-02-25T04:52:16.091Z,46.38
2023-02-25T04:54:43.042Z,45.15
2023-02-25T04:57:11.849Z,53.78
2023-02-25T04:59:39.537Z,43.47
2023-02-25T05:02:07.636Z,51.05
2023-02-25T05:04:38.661Z,45.63
2023-02-25T05:07:07.242Z,46.58
2023-02-25T05:09:34.559Z,61.38
2023-02-25T05:12:02.028Z,52.42
2023-02-25T05:14:30.022Z,47.80
2023-02-25T05:16:58.308Z,52.83
2023-02-25T05:19:25.899Z,47.05
2023-02-25T05:21:53.686Z,50.72
2023-02-25T05:24:23.813Z,45.45
2023-02-25T05:26:51.804Z,55.75
2023-02-25T05:29:19.294Z,43.65
2023-02-25T05:31:46.364Z,43.75
2023-02-25T05:34:13.469Z,40.65
2023-02-25T05:36:40.730Z,41.78
2023-02-25T05:39:07.650Z,36.15
2023-02-25T05:41:34.490Z,31.65
2023-02-25T05:44:01.438Z,36.42
2023-02-25T05:46:28.617Z,31.92
2023-02-25T05:48:55.625Z,40.95
2023-02-25T05:51:23.832Z,41.85
2023-02-25T05:53:52.242Z,33.58
2023-02-25T05:56:25.671Z,34.92
2023-02-25T05:58:52.940Z,29.52
2023-02-25T06:01:27.958Z,27.52
2023-02-25T06:03:58.672Z,29.48
2023-02-25T06:06:28.198Z,31.35
2023-02-25T06:08:55.145Z,32.13
2023-02-25T06:11:25.247Z,33.88
2023-02-25T06:13:53.837Z,36.85
2023-02-25T06:16:22.100Z,36.20
2023-02-25T06:18:51.518Z,36.83
2023-02-25T06:21:19.068Z,35.33
2023-02-25T06:23:45.978Z,34.72
2023-02-25T06:26:14.782Z,36.45
2023-02-25T06:28:42.249Z,35.78
2023-02-25T06:31:11.401Z,30.08
2023-02-25T06:33:39.410Z,45.10
2023-02-25T06:36:07.749Z,30.65
2023-02-25T06:38:36.202Z,31.00
2023-02-25T06:41:14.271Z,41.17
2023-02-25T06:43:42.297Z,34.45
2023-02-25T06:46:12.116Z,32.25
2023-02-25T06:48:39.466Z,31.48
2023-02-25T06:51:11.513Z,33.15
2023-02-25T06:53:39.767Z,34.05
2023-02-25T06:56:08.436Z,33.70
2023-02-25T06:58:35.676Z,42.05
2023-02-25T07:01:10.120Z,30.35
2023-02-25T07:03:37.837Z,35.55
2023-02-25T07:06:05.271Z,30.77
2023-02-25T07:08:32.605Z,34.15
2023-02-25T07:11:25.328Z,40.97
2023-02-25T07:13:52.309Z,36.08
2023-02-25T07:16:19.639Z,32.75
2023-02-25T07:18:46.910Z,30.27
2023-02-25T07:21:14.721Z,34.55
2023-02-25T07:23:42.424Z,31.02
2023-02-25T07:26:11.494Z,31.30
2023-02-25T07:28:39.464Z,29.05
2023-02-25T07:31:15.682Z,40.47
2023-02-25T07:33:43.673Z,31.75
2023-02-25T07:36:12.019Z,33.70
2023-02-25T07:38:39.589Z,32.20
2023-02-25T07:41:08.950Z,32.30
2023-02-25T07:43:36.012Z,37.63
2023-02-25T07:46:03.777Z,39.85
2023-02-25T07:48:31.198Z,28.50
2023-02-25T07:51:08.568Z,27.83
2023-02-25T07:53:36.127Z,32.25
2023-02-25T07:56:03.227Z,29.27
2023-02-25T07:58:30.134Z,25.92
2023-02-25T08:00:57.161Z,24.75
2023-02-25T08:03:24.298Z,30.80
2023-02-25T08:05:54.163Z,23.63
2023-02-25T08:08:22.241Z,28.00
2023-02-25T08:10:49.710Z,24.98
2023-02-25T08:13:16.656Z,24.92
2023-02-25T08:15:44.529Z,20.83
2023-02-25T08:18:11.836Z,28.67
2023-02-25T08:20:38.758Z,25.33
2023-02-25T08:23:06.481Z,25.17
2023-02-25T08:25:33.439Z,28.67
2023-02-25T08:28:01.184Z,27.45
2023-02-25T08:30:28.188Z,25.60
2023-02-25T08:32:55.182Z,26.05
2023-02-25T08:35:22.140Z,29.88
2023-02-25T08:37:48.993Z,32.08
2023-02-25T08:40:17.296Z,22.58
2023-02-25T08:42:45.512Z,21.95
2023-02-25T08:45:12.597Z,27.55
2023-02-25T08:47:39.461Z,26.13
2023-02-25T08:50:06.653Z,28.27
2023-02-25T08:52:33.830Z,23.70
2023-02-25T08:55:02.115Z,26.90
2023-02-25T08:57:29.956Z,27.08
2023-02-25T08:59:57.086Z,26.83
2023-02-25T09:02:24.440Z,23.63
2023-02-25T09:04:51.834Z,21.70
2023-02-25T09:07:18.845Z,19.58
2023-02-25T09:09:45.879Z,20.33
2023-02-25T09:12:12.811Z,20.33
2023-02-25T09:14:39.706Z,20.15
2023-02-25T09:17:06.960Z,22.60
2023-02-25T09:19:34.275Z,19.50
2023-02-25T09:22:01.888Z,22.45
2023-02-25T09:24:30.203Z,18.60
2023-02-25T09:26:57.195Z,21.98
2023-02-25T09:29:24.151Z,22.70
2023-02-25T09:31:51.254Z,24.30
2023-02-25T09:34:18.465Z,19.80
2023-02-25T09:36:45.387Z,23.58
2023-02-25T09:39:13.465Z,28.27
2023-02-25T09:41:56.021Z,32.25
2023-02-25T09:44:28.484Z,28.92
2023-02-25T09:47:25.005Z,21.70
2023-02-25T09:49:53.937Z,21.55
2023-02-25T09:52:41.952Z,22.75
2023-02-25T09:55:22.931Z,21.30
2023-02-25T09:58:11.256Z,23.15
2023-02-25T10:00:48.535Z,20.75
2023-02-25T10:03:26.755Z,17.65
2023-02-25T10:06:03.111Z,21.25
2023-02-25T10:08:48.020Z,14.68
2023-02-25T10:14:33.935Z,20.20
2023-02-25T10:17:32.869Z,21.50
2023-02-25T10:20:25.140Z,19.80
2023-02-25T10:23:07.337Z,22.33
2023-02-25T10:25:41.137Z,19.30
2023-02-25T10:28:16.480Z,19.45
2023-02-25T10:31:03.960Z,21.10
2023-02-25T10:33:37.045Z,20.15
2023-02-25T10:36:16.385Z,22.55
2023-02-25T10:38:50.030Z,15.45
2023-02-25T10:41:17.823Z,21.27
2023-02-25T10:43:45.935Z,19.48
2023-02-25T10:46:54.193Z,20.25
2023-02-25T10:49:26.046Z,21.75
2023-02-25T10:52:03.303Z,16.08
2023-02-25T10:54:35.533Z,21.48
2023-02-25T10:57:12.721Z,20.95
2023-02-25T10:59:40.972Z,15.23
2023-02-25T11:02:28.096Z,18.35
2023-02-25T11:04:55.880Z,22.48
2023-02-25T11:07:33.116Z,22.75
2023-02-25T11:10:19.577Z,22.27
2023-02-25T11:12:53.860Z,25.92
2023-02-25T11:15:31.673Z,28.50
2023-02-25T11:18:23.718Z,19.13
2023-02-25T11:21:02.000Z,22.30
2023-02-25T11:24:01.767Z,17.95
2023-02-25T11:26:33.551Z,16.48
2023-02-25T11:29:09.493Z,14.98
2023-02-25T11:31:40.813Z,16.95
2023-02-25T11:34:21.297Z,21.20
2023-02-25T11:36:50.953Z,26.98
2023-02-25T11:39:27.860Z,29.38
2023-02-25T11:42:01.913Z,40.20
2023-02-25T11:44:42.710Z,27.35
2023-02-25T11:47:26.121Z,16.50
2023-02-25T11:50:05.165Z,16.45
2023-02-25T11:52:39.108Z,23.27
2023-02-25T11:55:21.557Z,19.55
2023-02-25T11:57:54.393Z,22.55
2023-02-25T12:00:29.839Z,17.90
2023-02-25T12:03:15.257Z,21.98
2023-02-25T12:05:47.898Z,21.70
2023-02-25T12:08:20.668Z,33.40
2023-02-25T12:10:59.833Z,31.70
2023-02-25T12:14:04.157Z,23.92
2023-02-25T12:16:49.702Z,23.63
2023-02-25T12:19:44.994Z,16.85
2023-02-25T12:22:13.286Z,21.27
2023-02-25T12:24:52.249Z,21.17
2023-02-25T12:27:47.438Z,25.17
2023-02-25T12:30:47.331Z,27.52
2023-02-25T12:33:32.017Z,31.50
2023-02-25T12:36:38.864Z,25.38
2023-02-25T12:39:34.691Z,27.13
2023-02-25T12:42:30.716Z,18.02
2023-02-25T12:45:36.315Z,26.55
2023-02-25T12:48:35.262Z,23.23
2023-02-25T12:51:29.447Z,19.95
2023-02-25T12:54:17.907Z,26.13
2023-02-25T12:57:08.998Z,29.33
2023-02-25T12:59:42.140Z,22.73
2023-02-25T13:02:35.323Z,42.50
2023-02-25T13:05:37.300Z,18.80
2023-02-25T13:08:28.637Z,24.77
2023-02-25T13:11:31.334Z,30.23
2023-02-25T13:14:37.409Z,18.00
2023-02-25T13:17:04.549Z,21.93
2023-02-25T13:20:15.614Z,39.20
2023-02-25T13:22:48.053Z,27.17
2023-02-25T13:25:44.901Z,29.25
2023-02-25T13:28:40.672Z,26.08
2023-02-25T13:31:35.953Z,21.20
2023-02-25T13:34:30.589Z,19.30
2023-02-25T13:37:21.052Z,24.40
2023-02-25T13:39:56.107Z,14.38
2023-02-25T13:42:41.686Z,23.48
2023-02-25T13:45:24.765Z,25.98
2023-02-25T13:48:07.981Z,22.75
2023-02-25T13:50:56.943Z,25.33
2023-02-25T13:53:41.753Z,26.30
2023-02-25T13:56:37.640Z,25.15
2023-02-25T13:59:26.381Z,24.92
2023-02-25T14:02:41.272Z,26.98
2023-02-25T14:05:58.338Z,21.27
2023-02-25T14:08:48.741Z,28.98
2023-02-25T14:11:37.024Z,25.98
2023-02-25T14:14:25.931Z,33.38
2023-02-25T14:17:23.851Z,35.67
2023-02-25T14:20:13.608Z,23.42
2023-02-25T14:22:53.746Z,29.15
2023-02-25T14:25:20.690Z,23.40
2023-02-25T14:28:28.569Z,28.35
2023-02-25T14:31:10.624Z,16.15
2023-02-25T14:33:59.095Z,31.48
2023-02-25T14:36:41.122Z,26.73
2023-02-25T14:39:32.320Z,26.60
2023-02-25T14:42:18.492Z,28.85
2023-02-25T14:45:09.270Z,31.52
2023-02-25T14:47:46.478Z,13.32
2023-02-25T14:50:20.478Z,21.05
2023-02-25T14:52:51.615Z,25.50
2023-02-25T14:55:29.468Z,18.05
2023-02-25T14:58:16.946Z,35.22
2023-02-25T15:01:14.315Z,23.27
2023-02-25T15:04:04.934Z,17.42
2023-02-25T15:06:37.961Z,21.08
2023-02-25T15:09:38.617Z,22.30
2023-02-25T15:12:20.817Z,19.50
2023-02-25T15:15:05.639Z,22.65
2023-02-25T15:18:02.850Z,27.88
2023-02-25T15:20:33.235Z,22.65
2023-02-25T15:23:07.966Z,25.58
2023-02-25T15:25:38.387Z,22.77
2023-02-25T15:28:30.084Z,23.67
2023-02-25T15:31:00.463Z,25.65
2023-02-25T15:33:47.631Z,25.15
2023-02-25T15:36:14.506Z,28.17
2023-02-25T15:38:56.453Z,32.63
2023-02-25T15:41:29.226Z,32.05
2023-02-25T15:44:01.509Z,28.05
2023-02-25T15:46:48.254Z,27.10
2023-02-25T15:49:34.548Z,28.90
2023-02-25T15:52:04.796Z,24.55
2023-02-25T15:54:31.736Z,19.88
2023-02-25T15:57:05.141Z,23.40
2023-02-25T16:00:04.892Z,39.05
2023-02-25T16:02:34.849Z,27.98
2023-02-25T16:05:24.820Z,38.65
2023-02-25T16:08:05.759Z,23.33
2023-02-25T16:10:42.163Z,25.15
2023-02-25T16:13:16.465Z,18.90
2023-02-25T16:15:50.292Z,20.85
2023-02-25T16:18:20.227Z,26.45
2023-02-25T16:20:51.272Z,17.38
2023-02-25T16:23:19.174Z,29.98
2023-02-25T16:26:09.969Z,18.98
2023-02-25T16:29:10.902Z,23.65
2023-02-25T16:32:00.395Z,24.77
2023-02-25T16:34:41.702Z,19.33
2023-02-25T16:37:20.229Z,23.17
2023-02-25T16:39:47.605Z,24.60
2023-02-25T16:42:17.233Z,23.92
2023-02-25T16:44:48.245Z,27.75
2023-02-25T16:47:24.082Z,26.35
2023-02-25T16:49:53.204Z,25.85
2023-02-25T16:52:32.881Z,22.67
2023-02-25T16:55:12.392Z,24.60
2023-02-25T16:57:39.604Z,26.17
2023-02-25T17:00:15.963Z,26.88
2023-02-25T17:02:46.962Z,18.63
2023-02-25T17:05:26.715Z,21.67
2023-02-25T17:08:00.482Z,20.77
2023-02-25T17:10:32.197Z,25.80
2023-02-25T17:13:03.001Z,28.73
2023-02-25T17:15:33.252Z,19.23
2023-02-25T17:18:11.799Z,26.25
2023-02-25T17:20:38.862Z,29.77
2023-02-25T17:23:13.640Z,17.27
2023-02-25T17:25:43.350Z,22.77
2023-02-25T17:28:19.949Z,17.00
2023-02-25T17:30:47.500Z,18.73
2023-02-25T17:33:28.308Z,24.95
2023-02-25T17:36:09.566Z,22.90
2023-02-25T17:38:38.997Z,21.58
2023-02-25T17:41:06.426Z,15.63
2023-02-25T17:43:36.931Z,23.42
2023-02-25T17:46:16.683Z,20.58
2023-02-25T17:48:50.241Z,21.38
2023-02-25T17:51:17.609Z,20.77
2023-02-25T17:53:48.466Z,26.65
2023-02-25T17:56:23.000Z,23.50
2023-02-25T17:58:52.621Z,17.00
2023-02-25T18:01:26.170Z,23.40
2023-02-25T18:03:53.798Z,26.98
2023-02-25T18:06:34.552Z,17.13
2023-02-25T18:09:04.443Z,22.25
2023-02-25T18:11:37.973Z,27.05
2023-02-25T18:14:43.829Z,22.15
2023-02-25T18:17:26.086Z,29.10
2023-02-25T18:19:56.531Z,19.45
2023-02-25T18:22:46.642Z,18.13
2023-02-25T18:25:30.841Z,22.88
2023-02-25T18:27:58.272Z,25.20
2023-02-25T18:30:27.394Z,25.17
2023-02-25T18:32:54.793Z,30.33
2023-02-25T18:35:22.323Z,20.80
2023-02-25T18:37:51.039Z,20.73
2023-02-25T18:40:30.646Z,15.00
2023-02-25T18:42:58.791Z,23.67
2023-02-25T18:45:27.886Z,21.77
2023-02-25T18:47:57.016Z,24.77
2023-02-25T18:50:25.024Z,18.10
2023-02-25T18:52:52.042Z,23.90
2023-02-25T18:55:22.086Z,20.25
2023-02-25T18:57:49.506Z,19.15
2023-02-25T19:00:18.492Z,24.77
2023-02-25T19:03:02.372Z,18.70
2023-02-25T19:05:29.920Z,21.30
2023-02-25T19:07:57.518Z,18.42
2023-02-25T19:10:31.863Z,20.73
2023-02-25T19:13:05.269Z,19.95
2023-02-25T19:15:33.083Z,21.40
2023-02-25T19:18:00.636Z,31.40
2023-02-25T19:20:27.731Z,19.17
2023-02-25T19:22:55.065Z,13.88
2023-02-25T19:25:28.285Z,26.30
2023-02-25T19:27:57.187Z,18.83
2023-02-25T19:30:27.663Z,23.95
2023-02-25T19:32:55.557Z,27.95
2023-02-25T19:35:23.461Z,27.30
2023-02-25T19:37:50.446Z,17.33
2023-02-25T19:40:17.412Z,21.42
2023-02-25T19:42:45.093Z,16.00
2023-02-25T19:45:15.106Z,14.95
2023-02-25T19:47:42.433Z,17.48
2023-02-25T19:50:10.022Z,27.27
2023-02-25T19:52:37.121Z,31.13
2023-02-25T19:55:05.368Z,19.15
2023-02-25T19:57:33.274Z,20.38
2023-02-25T20:00:00.595Z,25.70
2023-02-25T20:02:27.736Z,19.80
2023-02-25T20:04:55.247Z,21.38
2023-02-25T20:07:22.325Z,26.02
2023-02-25T20:09:49.548Z,20.10
2023-02-25T20:12:16.640Z,24.90
2023-02-25T20:14:44.190Z,15.57
2023-02-25T20:17:11.289Z,17.30
2023-02-25T20:19:38.353Z,21.27
2023-02-25T20:22:08.712Z,20.60
2023-02-25T20:24:36.253Z,17.27
2023-02-25T20:27:03.202Z,16.15
2023-02-25T20:29:30.411Z,23.13
2023-02-25T20:31:58.046Z,24.27
2023-02-25T20:34:28.540Z,25.23
2023-02-25T20:37:06.370Z,23.10
2023-02-25T20:39:39.104Z,14.52
2023-02-25T20:42:15.220Z,20.42
2023-02-25T20:44:42.384Z,22.65
2023-02-25T20:47:17.138Z,17.30
2023-02-25T20:49:44.377Z,17.65
2023-02-25T20:52:13.717Z,22.42
2023-02-25T20:54:40.929Z,25.10
2023-02-25T20:57:11.645Z,30.80
2023-02-25T20:59:38.695Z,19.45
2023-02-25T21:02:06.161Z,17.02
2023-02-25T21:04:33.277Z,17.63
2023-02-25T21:07:00.302Z,15.77
2023-02-25T21:09:27.390Z,18.95
2023-02-25T21:11:54.429Z,19.23
2023-02-25T21:14:21.677Z,26.27
2023-02-25T21:16:54.467Z,17.88
2023-02-25T21:19:23.370Z,26.08
2023-02-25T21:21:51.817Z,25.95
2023-02-25T21:24:19.353Z,16.48
2023-02-25T21:26:47.116Z,25.88
2023-02-25T21:29:14.950Z,18.35
2023-02-25T21:31:42.424Z,14.30
2023-02-25T21:34:13.015Z,21.95
2023-02-25T21:36:41.671Z,20.05
2023-02-25T21:39:12.787Z,25.63
2023-02-25T21:41:44.390Z,15.43
2023-02-25T21:44:12.409Z,22.95
2023-02-25T21:46:40.355Z,20.23
2023-02-25T21:49:07.426Z,27.10
2023-02-25T21:51:34.405Z,24.33
2023-02-25T21:54:01.834Z,24.15
2023-02-25T21:56:30.081Z,24.45
2023-02-25T21:58:59.972Z,24.55
2023-02-25T22:01:31.361Z,17.02
2023-02-25T22:03:58.843Z,17.38
2023-02-25T22:06:26.405Z,21.90
2023-02-25T22:08:54.518Z,19.98
2023-02-25T22:11:24.978Z,29.05
2023-02-25T22:13:52.820Z,21.95
2023-02-25T22:16:20.897Z,23.30
2023-02-25T22:18:47.772Z,13.68
2023-02-25T22:21:23.276Z,15.23
2023-02-25T22:23:52.098Z,24.17
2023-02-25T22:26:22.020Z,20.50
2023-02-25T22:28:49.056Z,21.33
2023-02-25T22:31:17.685Z,21.60
2023-02-25T22:33:45.764Z,16.75
2023-02-25T22:36:15.305Z,16.65
2023-02-25T22:38:43.649Z,16.50
2023-02-25T22:41:19.195Z,26.50
2023-02-25T22:43:46.509Z,28.38
2023-02-25T22:46:16.892Z,17.83
2023-02-25T22:48:45.818Z,25.38
2023-02-25T22:51:14.127Z,18.00
2023-02-25T22:53:41.331Z,24.55
2023-02-25T22:56:10.720Z,25.05
2023-02-25T22:58:40.535Z,24.30
2023-02-25T23:01:13.103Z,25.00
2023-02-25T23:03:40.620Z,20.35
2023-02-25T23:06:07.807Z,22.98
2023-02-25T23:08:36.228Z,20.95
2023-02-25T23:11:18.637Z,23.25
2023-02-25T23:13:50.937Z,31.15
2023-02-25T23:16:42.186Z,17.73
2023-02-25T23:19:13.767Z,17.30
2023-02-25T23:21:41.077Z,30.00
2023-02-25T23:24:09.290Z,23.70
2023-02-25T23:26:40.709Z,29.20
2023-02-25T23:29:10.001Z,17.58
2023-02-25T23:31:42.209Z,20.63
2023-02-25T23:34:13.011Z,21.73
2023-02-25T23:36:42.932Z,15.00
2023-02-25T23:39:11.989Z,24.20
2023-02-25T23:41:39.296Z,17.60
2023-02-25T23:44:09.183Z,28.00
2023-02-25T23:46:37.275Z,16.35
2023-02-25T23:49:07.396Z,23.00
2023-02-25T23:51:35.935Z,27.30
2023-02-25T23:54:05.445Z,27.52
2023-02-25T23:56:33.332Z,20.00
2023-02-25T23:59:00.368Z,27.70
